createdAt,value
2019-04-07T00:00:20.035Z,87.05
2019-04-07T00:01:20.613Z,86.63
2019-04-07T00:02:20.069Z,86.47
2019-04-07T00:03:20.009Z,86.57
2019-04-07T00:04:20.382Z,87.29
2019-04-07T00:05:20.703Z,87.19
2019-04-07T00:06:20.317Z,88.22
2019-04-07T00:07:20.084Z,87.29
2019-04-07T00:08:20.523Z,88.02
2019-04-07T00:09:20.532Z,88.70
2019-04-07T00:10:20.382Z,88.39
2019-04-07T00:11:19.911Z,87.07
2019-04-07T00:12:19.977Z,85.49
2019-04-07T00:13:19.891Z,84.14
2019-04-07T00:14:19.880Z,83.80
2019-04-07T00:15:19.865Z,83.90
2019-04-07T00:16:20.189Z,83.07
2019-04-07T00:17:20.585Z,82.87
2019-04-07T00:18:20.344Z,82.05
2019-04-07T00:19:19.819Z,82.19
2019-04-07T00:20:19.894Z,83.94
2019-04-07T00:21:19.797Z,84.19
2019-04-07T00:22:19.972Z,84.84
2019-04-07T00:23:20.056Z,83.91
2019-04-07T00:24:19.814Z,83.71
2019-04-07T00:25:19.826Z,83.75
2019-04-07T00:26:20.327Z,81.66
2019-04-07T00:27:20.098Z,84.89
2019-04-07T00:28:19.720Z,85.70
2019-04-07T00:29:19.711Z,85.49
2019-04-07T00:30:19.835Z,87.91
2019-04-07T00:31:20.471Z,89.50
2019-04-07T00:32:20.007Z,90.44
2019-04-07T00:33:19.660Z,90.64
2019-04-07T00:34:19.652Z,89.61
2019-04-07T00:35:26.935Z,89.50
2019-04-07T00:36:20.701Z,90.64
2019-04-07T00:37:19.614Z,91.57
2019-04-07T00:38:19.603Z,93.12
2019-04-07T00:39:20.700Z,93.74
2019-04-07T00:40:19.673Z,93.95
2019-04-07T00:41:19.979Z,94.98
2019-04-07T00:42:19.625Z,94.78
2019-04-07T00:43:19.925Z,95.04
2019-04-07T00:44:19.911Z,95.94
2019-04-07T00:45:19.523Z,94.90
2019-04-07T00:46:20.018Z,92.72
2019-04-07T00:47:19.593Z,91.90
2019-04-07T00:48:19.554Z,91.49
2019-04-07T00:49:19.475Z,91.69
2019-04-07T00:50:19.538Z,92.46
2019-04-07T00:51:20.082Z,93.55
2019-04-07T00:52:19.512Z,93.14
2019-04-07T00:53:19.993Z,92.83
2019-04-07T00:54:19.494Z,92.52
2019-04-07T00:55:19.408Z,91.38
2019-04-07T00:56:19.396Z,91.80
2019-04-07T00:57:19.871Z,92.15
2019-04-07T00:58:19.374Z,91.63
2019-04-07T00:59:19.688Z,91.84
2019-04-07T01:00:19.431Z,91.94
2019-04-07T01:01:19.643Z,91.90
2019-04-07T01:02:19.329Z,91.74
2019-04-07T01:03:19.503Z,92.52
2019-04-07T01:04:19.897Z,93.55
2019-04-07T01:05:19.298Z,92.33
2019-04-07T01:06:19.360Z,90.99
2019-04-07T01:07:19.276Z,89.81
2019-04-07T01:08:19.299Z,89.19
2019-04-07T01:09:19.857Z,89.09
2019-04-07T01:10:19.315Z,87.85
2019-04-07T01:11:20.019Z,88.16
2019-04-07T01:12:19.360Z,88.57
2019-04-07T01:13:19.846Z,88.02
2019-04-07T01:14:19.197Z,86.78
2019-04-07T01:15:19.753Z,87.26
2019-04-07T01:16:19.853Z,87.46
2019-04-07T01:17:19.187Z,87.15
2019-04-07T01:18:19.596Z,87.46
2019-04-07T01:19:19.143Z,85.87
2019-04-07T01:20:19.476Z,86.39
2019-04-07T01:21:19.245Z,86.29
2019-04-07T01:22:19.268Z,85.67
2019-04-07T01:23:19.360Z,85.36
2019-04-07T01:24:19.091Z,85.46
2019-04-07T01:25:19.300Z,86.29
2019-04-07T01:26:19.065Z,85.05
2019-04-07T01:27:19.243Z,81.79
2019-04-07T01:28:19.043Z,82.86
2019-04-07T01:29:19.032Z,83.48
2019-04-07T01:30:19.199Z,84.07
2019-04-07T01:31:19.652Z,85.00
2019-04-07T01:32:19.187Z,84.11
2019-04-07T01:33:19.047Z,84.36
2019-04-07T01:34:19.601Z,84.08
2019-04-07T01:35:18.958Z,85.94
2019-04-07T01:36:18.945Z,86.57
2019-04-07T01:37:19.001Z,87.43
2019-04-07T01:38:18.923Z,88.06
2019-04-07T01:39:19.451Z,88.06
2019-04-07T01:40:18.909Z,88.51
2019-04-07T01:41:18.887Z,89.69
2019-04-07T01:42:19.097Z,90.20
2019-04-07T01:43:18.941Z,90.87
2019-04-07T01:44:19.009Z,90.04
2019-04-07T01:45:18.843Z,90.35
2019-04-07T01:46:19.138Z,91.49
2019-04-07T01:47:19.015Z,92.53
2019-04-07T01:48:19.288Z,92.32
2019-04-07T01:49:19.403Z,90.87
2019-04-07T01:50:18.791Z,91.28
2019-04-07T01:51:18.778Z,90.87
2019-04-07T01:52:19.533Z,89.83
2019-04-07T01:53:19.150Z,89.36
2019-04-07T01:54:18.746Z,89.87
2019-04-07T01:55:19.081Z,91.16
2019-04-07T01:56:18.722Z,91.27
2019-04-07T01:57:18.711Z,91.78
2019-04-07T01:58:18.707Z,91.89
2019-04-07T01:59:18.690Z,92.24
2019-04-07T02:00:18.831Z,93.38
2019-04-07T02:01:18.749Z,93.80
2019-04-07T02:02:18.947Z,94.32
2019-04-07T02:03:18.770Z,94.42
2019-04-07T02:04:19.167Z,93.49
2019-04-07T02:05:18.796Z,94.01
2019-04-07T02:06:18.890Z,95.36
2019-04-07T02:07:18.653Z,96.19
2019-04-07T02:08:18.590Z,95.04
2019-04-07T02:09:18.675Z,95.98
2019-04-07T02:10:18.827Z,96.29
2019-04-07T02:11:18.776Z,96.91
2019-04-07T02:12:18.957Z,95.93
2019-04-07T02:13:18.716Z,95.72
2019-04-07T02:14:19.101Z,94.68
2019-04-07T02:15:18.585Z,95.26
2019-04-07T02:16:19.186Z,95.32
2019-04-07T02:17:18.488Z,95.22
2019-04-07T02:18:18.551Z,95.32
2019-04-07T02:19:19.049Z,95.39
2019-04-07T02:20:19.012Z,94.35
2019-04-07T02:21:18.440Z,93.21
2019-04-07T02:22:18.966Z,93.73
2019-04-07T02:23:18.417Z,92.63
2019-04-07T02:24:19.202Z,90.77
2019-04-07T02:25:18.397Z,89.56
2019-04-07T02:26:18.998Z,89.56
2019-04-07T02:27:18.373Z,91.27
2019-04-07T02:28:18.789Z,91.06
2019-04-07T02:29:18.349Z,91.62
2019-04-07T02:30:19.622Z,92.76
2019-04-07T02:31:19.144Z,92.90
2019-04-07T02:32:18.520Z,94.01
2019-04-07T02:33:18.306Z,93.80
2019-04-07T02:34:18.295Z,94.32
2019-04-07T02:35:18.284Z,94.21
2019-04-07T02:36:26.112Z,93.84
2019-04-07T02:37:19.434Z,94.46
2019-04-07T02:38:19.179Z,94.15
2019-04-07T02:39:18.315Z,93.53
2019-04-07T02:40:19.142Z,93.74
2019-04-07T02:41:18.222Z,93.63
2019-04-07T02:42:18.913Z,93.84
2019-04-07T02:43:19.320Z,94.26
2019-04-07T02:44:18.186Z,94.78
2019-04-07T02:45:18.171Z,94.46
2019-04-07T02:46:18.283Z,94.30
2019-04-07T02:47:18.201Z,94.26
2019-04-07T02:48:18.229Z,95.13
2019-04-07T02:49:18.131Z,96.48
2019-04-07T02:50:18.116Z,96.89
2019-04-07T02:51:18.143Z,97.27
2019-04-07T02:52:18.535Z,97.47
2019-04-07T02:53:18.082Z,97.37
2019-04-07T02:54:18.079Z,96.95
2019-04-07T02:55:18.397Z,97.27
2019-04-07T02:56:18.050Z,97.68
2019-04-07T02:57:18.959Z,97.27
2019-04-07T02:58:18.098Z,97.06
2019-04-07T02:59:18.016Z,97.27
2019-04-07T03:00:18.387Z,96.85
2019-04-07T03:01:18.163Z,96.64
2019-04-07T03:02:17.992Z,96.33
2019-04-07T03:03:18.781Z,96.54
2019-04-07T03:04:18.937Z,96.02
2019-04-07T03:05:18.027Z,95.61
2019-04-07T03:06:33.928Z,95.34
2019-04-07T03:07:19.984Z,95.34
2019-04-07T03:08:18.435Z,95.34
2019-04-07T03:09:18.736Z,95.65
2019-04-07T03:10:18.652Z,95.34
2019-04-07T03:11:18.131Z,95.75
2019-04-07T03:12:18.809Z,96.27
2019-04-07T03:13:17.941Z,96.06
2019-04-07T03:14:17.884Z,96.48
2019-04-07T03:15:17.849Z,96.44
2019-04-07T03:16:17.907Z,96.17
2019-04-07T03:17:17.825Z,95.44
2019-04-07T03:18:17.805Z,96.37
2019-04-07T03:19:17.840Z,96.89
2019-04-07T03:20:18.758Z,97.72
2019-04-07T03:21:17.792Z,96.95
2019-04-07T03:22:18.252Z,97.20
2019-04-07T03:23:17.750Z,97.06
2019-04-07T03:24:17.736Z,96.95
2019-04-07T03:25:18.481Z,97.47
2019-04-07T03:26:18.444Z,96.44
2019-04-07T03:27:17.947Z,95.44
2019-04-07T03:28:17.759Z,94.51
2019-04-07T03:29:18.233Z,94.76
2019-04-07T03:30:18.450Z,95.48
2019-04-07T03:31:19.513Z,96.42
2019-04-07T03:32:19.913Z,97.45
2019-04-07T03:33:21.173Z,98.14
2019-04-07T03:34:18.420Z,98.24
2019-04-07T03:35:20.145Z,97.99
2019-04-07T03:36:20.757Z,97.89
2019-04-07T03:37:33.433Z,97.93
2019-04-07T03:38:18.987Z,98.35
2019-04-07T03:39:17.577Z,97.93
2019-04-07T03:40:18.350Z,97.10
2019-04-07T03:41:18.249Z,98.35
2019-04-07T03:42:17.901Z,98.14
2019-04-07T03:43:17.759Z,98.35
2019-04-07T03:44:18.497Z,98.55
2019-04-07T03:45:17.500Z,97.83
2019-04-07T03:46:18.325Z,97.20
2019-04-07T03:47:18.391Z,97.20
2019-04-07T03:48:17.744Z,97.35
2019-04-07T03:49:17.454Z,97.35
2019-04-07T03:50:18.558Z,97.67
2019-04-07T03:51:17.430Z,97.45
2019-04-07T03:52:17.439Z,97.45
2019-04-07T03:53:17.953Z,97.35
2019-04-07T03:54:18.306Z,97.77
2019-04-07T03:55:17.391Z,97.40
2019-04-07T03:56:17.455Z,96.82
2019-04-07T03:57:17.378Z,96.20
2019-04-07T03:58:18.079Z,96.45
2019-04-07T03:59:18.211Z,96.86
2019-04-07T04:00:17.343Z,97.17
2019-04-07T04:01:17.577Z,97.07
2019-04-07T04:02:17.667Z,97.17
2019-04-07T04:03:17.302Z,96.86
2019-04-07T04:04:17.657Z,97.65
2019-04-07T04:05:17.277Z,97.44
2019-04-07T04:06:17.539Z,97.75
2019-04-07T04:07:27.593Z,97.55
2019-04-07T04:08:18.448Z,97.65
2019-04-07T04:09:17.459Z,96.82
2019-04-07T04:10:17.377Z,96.24
2019-04-07T04:11:18.180Z,95.72
2019-04-07T04:12:17.247Z,95.35
2019-04-07T04:13:17.179Z,96.28
2019-04-07T04:14:17.220Z,97.80
2019-04-07T04:15:18.281Z,97.65
2019-04-07T04:16:18.048Z,98.38
2019-04-07T04:17:17.141Z,99.06
2019-04-07T04:18:18.293Z,98.50
2019-04-07T04:19:17.205Z,99.02
2019-04-07T04:20:17.101Z,98.76
2019-04-07T04:21:17.731Z,98.45
2019-04-07T04:22:17.078Z,98.86
2019-04-07T04:23:17.811Z,98.19
2019-04-07T04:24:17.142Z,97.52
2019-04-07T04:25:17.275Z,97.35
2019-04-07T04:26:17.647Z,96.78
2019-04-07T04:27:17.060Z,96.94
2019-04-07T04:28:17.019Z,97.67
2019-04-07T04:29:17.091Z,96.94
2019-04-07T04:30:17.057Z,97.98
2019-04-07T04:31:17.983Z,97.62
2019-04-07T04:32:16.966Z,97.88
2019-04-07T04:33:17.866Z,96.89
2019-04-07T04:34:17.350Z,96.89
2019-04-07T04:35:17.034Z,97.52
2019-04-07T04:36:17.763Z,97.10
2019-04-07T04:37:33.295Z,96.69
2019-04-07T04:38:17.943Z,97.20
2019-04-07T04:39:18.624Z,96.83
2019-04-07T04:40:17.733Z,97.35
2019-04-07T04:41:16.940Z,97.04
2019-04-07T04:42:16.931Z,97.14
2019-04-07T04:43:17.762Z,96.62
2019-04-07T04:44:16.825Z,96.31
2019-04-07T04:45:17.036Z,96.00
2019-04-07T04:46:17.093Z,95.69
2019-04-07T04:47:16.892Z,95.73
2019-04-07T04:48:17.359Z,95.42
2019-04-07T04:49:17.039Z,96.31
2019-04-07T04:50:16.904Z,96.88
2019-04-07T04:51:17.558Z,96.73
2019-04-07T04:52:16.992Z,96.52
2019-04-07T04:53:17.127Z,96.58
2019-04-07T04:54:17.209Z,96.48
2019-04-07T04:55:16.799Z,96.69
2019-04-07T04:56:16.837Z,96.27
2019-04-07T04:57:17.679Z,96.17
2019-04-07T04:58:17.498Z,96.17
2019-04-07T04:59:16.680Z,95.86
2019-04-07T05:00:17.784Z,96.37
2019-04-07T05:01:17.484Z,95.65
2019-04-07T05:02:17.146Z,95.71
2019-04-07T05:03:18.007Z,95.19
2019-04-07T05:04:17.371Z,95.09
2019-04-07T05:05:16.978Z,95.19
2019-04-07T05:06:16.654Z,94.57
2019-04-07T05:07:16.828Z,94.46
2019-04-07T05:08:17.501Z,94.15
2019-04-07T05:09:16.545Z,93.74
2019-04-07T05:10:17.086Z,93.49
2019-04-07T05:11:16.730Z,93.22
2019-04-07T05:12:16.585Z,93.18
2019-04-07T05:13:16.986Z,91.78
2019-04-07T05:14:16.531Z,91.37
2019-04-07T05:15:16.470Z,90.33
2019-04-07T05:16:16.472Z,90.48
2019-04-07T05:17:16.455Z,90.37
2019-04-07T05:18:16.651Z,90.06
2019-04-07T05:19:16.432Z,89.75
2019-04-07T05:20:16.414Z,89.75
2019-04-07T05:21:16.403Z,89.75
2019-04-07T05:22:16.689Z,89.86
2019-04-07T05:23:16.379Z,88.51
2019-04-07T05:24:16.913Z,87.78
2019-04-07T05:25:16.368Z,88.20
2019-04-07T05:26:16.347Z,88.20
2019-04-07T05:27:16.497Z,89.06
2019-04-07T05:28:16.617Z,89.69
2019-04-07T05:29:17.040Z,89.79
2019-04-07T05:30:16.838Z,90.20
2019-04-07T05:31:16.291Z,91.24
2019-04-07T05:32:16.871Z,91.72
2019-04-07T05:33:16.570Z,92.10
2019-04-07T05:34:19.568Z,90.70
2019-04-07T05:35:17.539Z,91.28
2019-04-07T05:36:16.701Z,90.35
2019-04-07T05:37:16.689Z,89.89
2019-04-07T05:38:16.278Z,89.86
2019-04-07T05:39:16.535Z,89.29
2019-04-07T05:40:16.604Z,88.36
2019-04-07T05:41:16.181Z,88.74
2019-04-07T05:42:16.661Z,88.26
2019-04-07T05:43:16.176Z,89.36
2019-04-07T05:44:16.759Z,88.70
2019-04-07T05:45:16.134Z,87.62
2019-04-07T05:46:16.213Z,87.48
2019-04-07T05:47:16.507Z,86.24
2019-04-07T05:48:18.526Z,85.21
2019-04-07T05:49:16.924Z,85.52
2019-04-07T05:50:16.653Z,85.62
2019-04-07T05:51:16.067Z,85.52
2019-04-07T05:52:16.202Z,85.06
2019-04-07T05:53:16.047Z,85.72
2019-04-07T05:54:18.067Z,85.31
2019-04-07T05:55:16.020Z,85.52
2019-04-07T05:56:16.464Z,85.27
2019-04-07T05:57:16.000Z,84.20
2019-04-07T05:58:16.137Z,85.23
2019-04-07T05:59:16.066Z,85.19
2019-04-07T06:00:16.956Z,84.01
2019-04-07T06:01:17.094Z,83.61
2019-04-07T06:02:16.711Z,84.08
2019-04-07T06:03:16.496Z,82.91
2019-04-07T06:04:18.398Z,83.73
2019-04-07T06:05:17.449Z,83.73
2019-04-07T06:06:15.923Z,81.74
2019-04-07T06:07:15.897Z,80.47
2019-04-07T06:08:24.726Z,79.33
2019-04-07T06:09:18.895Z,79.40
2019-04-07T06:10:16.601Z,78.37
2019-04-07T06:11:15.985Z,78.27
2019-04-07T06:12:16.106Z,77.51
2019-04-07T06:13:15.826Z,77.20
2019-04-07T06:14:16.969Z,77.00
2019-04-07T06:15:21.567Z,79.05
2019-04-07T06:16:19.941Z,78.47
2019-04-07T06:17:16.270Z,77.72
2019-04-07T06:18:15.762Z,76.28
2019-04-07T06:19:16.081Z,75.67
2019-04-07T06:20:17.034Z,75.67
2019-04-07T06:21:16.245Z,76.90
2019-04-07T06:22:19.891Z,76.65
2019-04-07T06:23:16.991Z,76.97
2019-04-07T06:24:15.709Z,76.82
2019-04-07T06:25:16.638Z,74.98
2019-04-07T06:26:15.673Z,75.87
2019-04-07T06:27:16.962Z,75.25
2019-04-07T06:28:17.221Z,75.11
2019-04-07T06:29:16.095Z,75.01
2019-04-07T06:30:16.474Z,74.19
2019-04-07T06:31:15.692Z,75.42
2019-04-07T06:32:15.623Z,75.38
2019-04-07T06:33:15.695Z,75.08
2019-04-07T06:34:16.175Z,75.49
2019-04-07T06:35:15.914Z,75.08
2019-04-07T06:36:18.664Z,76.68
2019-04-07T06:37:15.549Z,75.35
2019-04-07T06:38:15.595Z,76.48
2019-04-07T06:39:17.153Z,76.24
2019-04-07T06:40:15.516Z,75.21
2019-04-07T06:41:16.137Z,75.52
2019-04-07T06:42:15.492Z,74.26
2019-04-07T06:43:15.672Z,74.56
2019-04-07T06:44:19.385Z,75.14
2019-04-07T06:45:16.458Z,72.78
2019-04-07T06:46:16.066Z,73.27
2019-04-07T06:47:17.735Z,73.06
2019-04-07T06:48:15.428Z,72.31
2019-04-07T06:49:15.418Z,71.90
2019-04-07T06:50:15.982Z,72.11
2019-04-07T06:51:16.099Z,71.87
2019-04-07T06:52:15.424Z,70.75
2019-04-07T06:53:18.600Z,72.00
2019-04-07T06:54:18.561Z,68.94
2019-04-07T06:55:16.346Z,69.04
2019-04-07T06:56:15.469Z,68.50
2019-04-07T06:57:15.456Z,69.62
2019-04-07T06:58:15.493Z,68.64
2019-04-07T06:59:16.550Z,69.35
2019-04-07T07:00:17.496Z,69.05
2019-04-07T07:01:16.625Z,67.41
2019-04-07T07:02:15.293Z,67.62
2019-04-07T07:03:15.830Z,67.69
2019-04-07T07:04:15.685Z,67.12
2019-04-07T07:05:15.668Z,67.08
2019-04-07T07:06:17.375Z,65.49
2019-04-07T07:07:16.780Z,65.19
2019-04-07T07:08:19.420Z,65.59
2019-04-07T07:09:16.574Z,65.77
2019-04-07T07:10:25.933Z,64.61
2019-04-07T07:11:27.578Z,63.80
2019-04-07T07:12:22.513Z,63.06
2019-04-07T07:13:28.330Z,62.75
2019-04-07T07:14:29.998Z,63.46
2019-04-07T07:15:16.118Z,63.02
2019-04-07T07:16:17.034Z,62.59
2019-04-07T07:17:16.974Z,63.07
2019-04-07T07:18:15.446Z,61.72
2019-04-07T07:19:15.225Z,60.88
2019-04-07T07:20:15.694Z,59.63
2019-04-07T07:21:15.340Z,59.63
2019-04-07T07:22:16.574Z,59.43
2019-04-07T07:23:15.791Z,59.81
2019-04-07T07:24:16.451Z,60.42
2019-04-07T07:25:16.010Z,59.27
2019-04-07T07:26:15.014Z,59.78
2019-04-07T07:27:15.433Z,59.45
2019-04-07T07:28:15.049Z,58.61
2019-04-07T07:29:16.449Z,58.74
2019-04-07T07:30:17.476Z,58.71
2019-04-07T07:31:15.481Z,59.01
2019-04-07T07:32:14.952Z,58.71
2019-04-07T07:33:14.948Z,58.69
2019-04-07T07:34:15.573Z,58.76
2019-04-07T07:35:16.481Z,57.82
2019-04-07T07:36:17.375Z,57.42
2019-04-07T07:37:14.996Z,58.33
2019-04-07T07:38:14.923Z,58.15
2019-04-07T07:39:14.866Z,58.23
2019-04-07T07:40:16.600Z,58.30
2019-04-07T07:41:17.221Z,57.39
2019-04-07T07:42:14.870Z,55.54
2019-04-07T07:43:14.827Z,56.58
2019-04-07T07:44:15.538Z,56.25
2019-04-07T07:45:15.612Z,56.32
2019-04-07T07:46:18.174Z,55.79
2019-04-07T07:47:17.625Z,55.57
2019-04-07T07:48:14.749Z,55.46
2019-04-07T07:49:14.842Z,56.07
2019-04-07T07:50:15.377Z,55.44
2019-04-07T07:51:15.389Z,53.90
2019-04-07T07:52:18.561Z,52.77
2019-04-07T07:53:15.816Z,51.76
2019-04-07T07:54:15.980Z,50.78
2019-04-07T07:55:15.097Z,52.11
2019-04-07T07:56:14.658Z,51.48
2019-04-07T07:57:14.652Z,51.06
2019-04-07T07:58:14.705Z,50.63
2019-04-07T07:59:14.645Z,50.33
2019-04-07T08:00:14.630Z,49.93
2019-04-07T08:01:15.697Z,50.20
2019-04-07T08:02:16.803Z,50.57
2019-04-07T08:03:14.667Z,51.18
2019-04-07T08:04:15.212Z,51.03
2019-04-07T08:05:14.557Z,50.76
2019-04-07T08:06:15.057Z,51.71
2019-04-07T08:07:16.473Z,52.24
2019-04-07T08:08:15.665Z,52.51
2019-04-07T08:09:16.437Z,52.97
2019-04-07T08:10:15.874Z,52.11
2019-04-07T08:11:16.479Z,51.31
2019-04-07T08:12:15.234Z,52.19
2019-04-07T08:13:14.584Z,50.65
2019-04-07T08:14:16.673Z,49.57
2019-04-07T08:15:14.444Z,49.05
2019-04-07T08:16:15.178Z,49.25
2019-04-07T08:17:14.814Z,48.63
2019-04-07T08:18:14.483Z,49.55
2019-04-07T08:19:14.398Z,48.75
2019-04-07T08:20:15.254Z,48.77
2019-04-07T08:21:16.574Z,50.78
2019-04-07T08:22:26.537Z,48.44
2019-04-07T08:23:15.609Z,47.19
2019-04-07T08:24:18.530Z,47.41
2019-04-07T08:25:14.330Z,46.10
2019-04-07T08:26:14.676Z,48.26
2019-04-07T08:27:14.963Z,47.74
2019-04-07T08:28:14.710Z,48.21
2019-04-07T08:29:14.711Z,46.88
2019-04-07T08:30:14.275Z,47.81
2019-04-07T08:31:17.780Z,47.28
2019-04-07T08:32:15.330Z,47.36
2019-04-07T08:33:14.718Z,48.47
2019-04-07T08:34:14.322Z,48.44
2019-04-07T08:35:14.370Z,46.69
2019-04-07T08:36:14.955Z,45.34
2019-04-07T08:37:15.215Z,45.67
2019-04-07T08:38:18.620Z,46.27
2019-04-07T08:39:23.758Z,44.84
2019-04-07T08:40:15.273Z,44.62
2019-04-07T08:41:15.874Z,45.37
2019-04-07T08:42:18.608Z,43.74
2019-04-07T08:43:19.605Z,43.62
2019-04-07T08:44:15.118Z,42.57
2019-04-07T08:45:14.556Z,41.27
2019-04-07T08:46:14.098Z,40.97
2019-04-07T08:47:19.156Z,41.31
2019-04-07T08:48:18.253Z,40.05
2019-04-07T08:49:15.124Z,41.33
2019-04-07T08:50:15.111Z,44.31
2019-04-07T08:51:14.841Z,43.28
2019-04-07T08:52:14.029Z,44.28
2019-04-07T08:53:14.798Z,42.44
2019-04-07T08:54:17.601Z,41.75
2019-04-07T08:55:13.994Z,43.38
2019-04-07T08:56:13.985Z,42.46
2019-04-07T08:57:14.136Z,43.60
2019-04-07T08:58:23.574Z,42.30
2019-04-07T08:59:17.034Z,41.99
2019-04-07T09:00:17.271Z,41.17
2019-04-07T09:01:14.277Z,41.69
2019-04-07T09:02:14.082Z,42.11
2019-04-07T09:03:15.928Z,42.19
2019-04-07T09:04:16.532Z,41.79
2019-04-07T09:05:13.959Z,41.83
2019-04-07T09:06:13.880Z,42.11
2019-04-07T09:07:14.110Z,41.49
2019-04-07T09:08:13.878Z,41.47
2019-04-07T09:09:14.059Z,41.47
2019-04-07T09:10:17.049Z,41.37
2019-04-07T09:11:14.612Z,41.69
2019-04-07T09:12:14.054Z,41.19
2019-04-07T09:13:13.801Z,41.69
2019-04-07T09:14:16.033Z,41.69
2019-04-07T09:15:13.784Z,42.10
2019-04-07T09:16:16.220Z,41.99
2019-04-07T09:17:13.830Z,43.10
2019-04-07T09:18:15.241Z,42.49
2019-04-07T09:19:13.867Z,44.23
2019-04-07T09:20:13.741Z,43.92
2019-04-07T09:21:15.190Z,43.70
2019-04-07T09:22:13.703Z,43.90
2019-04-07T09:23:13.760Z,44.08
2019-04-07T09:24:13.679Z,43.66
2019-04-07T09:25:13.778Z,44.04
2019-04-07T09:26:13.984Z,44.16
2019-04-07T09:27:17.148Z,44.38
2019-04-07T09:28:14.703Z,43.76
2019-04-07T09:29:13.621Z,42.47
2019-04-07T09:30:14.179Z,43.80
2019-04-07T09:31:14.350Z,41.77
2019-04-07T09:32:13.588Z,42.13
2019-04-07T09:33:13.707Z,42.11
2019-04-07T09:34:13.655Z,42.99
2019-04-07T09:35:13.551Z,42.55
2019-04-07T09:36:13.540Z,42.85
2019-04-07T09:37:13.533Z,43.38
2019-04-07T09:38:14.277Z,43.68
2019-04-07T09:39:14.400Z,42.99
2019-04-07T09:40:16.444Z,42.90
2019-04-07T09:41:14.362Z,41.89
2019-04-07T09:42:13.752Z,43.36
2019-04-07T09:43:14.546Z,44.87
2019-04-07T09:44:13.615Z,45.87
2019-04-07T09:45:13.839Z,43.70
2019-04-07T09:46:13.706Z,42.61
2019-04-07T09:47:16.085Z,41.17
2019-04-07T09:48:13.742Z,40.86
2019-04-07T09:49:13.562Z,41.14
2019-04-07T09:50:13.388Z,41.47
2019-04-07T09:51:13.546Z,41.27
2019-04-07T09:52:14.925Z,41.17
2019-04-07T09:53:13.793Z,41.17
2019-04-07T09:54:13.401Z,41.82
2019-04-07T09:55:14.095Z,43.90
2019-04-07T09:56:13.325Z,43.66
2019-04-07T09:57:14.091Z,42.46
2019-04-07T09:58:13.619Z,42.97
2019-04-07T09:59:16.805Z,43.54
2019-04-07T10:00:14.525Z,42.55
2019-04-07T10:01:17.586Z,42.46
2019-04-07T10:02:14.621Z,41.96
2019-04-07T10:03:15.143Z,42.66
2019-04-07T10:04:14.257Z,42.25
2019-04-07T10:05:13.221Z,41.55
2019-04-07T10:06:13.227Z,42.47
2019-04-07T10:07:15.329Z,42.49
2019-04-07T10:08:13.938Z,43.72
2019-04-07T10:09:13.176Z,44.14
2019-04-07T10:10:14.794Z,43.82
2019-04-07T10:11:14.041Z,43.70
2019-04-07T10:12:13.978Z,44.14
2019-04-07T10:13:13.535Z,44.14
2019-04-07T10:14:13.815Z,43.90
2019-04-07T10:15:13.112Z,43.04
2019-04-07T10:16:13.290Z,41.39
2019-04-07T10:17:13.089Z,40.99
2019-04-07T10:18:13.233Z,41.55
2019-04-07T10:19:13.136Z,41.75
2019-04-07T10:20:13.123Z,40.91
2019-04-07T10:21:13.043Z,41.33
2019-04-07T10:22:13.872Z,41.43
2019-04-07T10:23:13.025Z,41.63
2019-04-07T10:24:13.130Z,40.78
2019-04-07T10:25:13.002Z,39.94
2019-04-07T10:26:13.123Z,39.86
2019-04-07T10:27:12.977Z,40.88
2019-04-07T10:28:13.745Z,40.95
2019-04-07T10:29:12.959Z,41.30
2019-04-07T10:30:13.490Z,40.58
2019-04-07T10:31:13.727Z,40.44
2019-04-07T10:32:13.641Z,39.94
2019-04-07T10:33:13.355Z,41.39
2019-04-07T10:34:13.432Z,41.21
2019-04-07T10:35:13.633Z,41.52
2019-04-07T10:36:13.630Z,40.99
2019-04-07T10:37:13.392Z,41.31
2019-04-07T10:38:12.868Z,40.61
2019-04-07T10:39:13.042Z,41.39
2019-04-07T10:40:19.467Z,40.17
2019-04-07T10:41:14.076Z,41.27
2019-04-07T10:42:13.656Z,40.95
2019-04-07T10:43:12.826Z,39.64
2019-04-07T10:44:12.819Z,39.62
2019-04-07T10:45:12.782Z,39.82
2019-04-07T10:46:13.519Z,39.52
2019-04-07T10:47:12.831Z,40.88
2019-04-07T10:48:13.451Z,40.28
2019-04-07T10:49:12.838Z,40.08
2019-04-07T10:50:12.727Z,40.25
2019-04-07T10:51:12.721Z,40.58
2019-04-07T10:52:12.706Z,40.80
2019-04-07T10:53:12.764Z,40.50
2019-04-07T10:54:12.686Z,40.89
2019-04-07T10:55:13.050Z,40.50
2019-04-07T10:56:12.662Z,39.58
2019-04-07T10:57:12.717Z,39.89
2019-04-07T10:58:12.641Z,38.44
2019-04-07T10:59:12.700Z,37.92
2019-04-07T11:00:13.439Z,38.31
2019-04-07T11:01:12.633Z,37.92
2019-04-07T11:02:13.412Z,39.79
2019-04-07T11:03:13.179Z,40.61
2019-04-07T11:04:12.797Z,40.22
2019-04-07T11:05:13.068Z,40.13
2019-04-07T11:06:13.845Z,42.13
2019-04-07T11:07:12.973Z,41.24
2019-04-07T11:08:12.532Z,40.08
2019-04-07T11:09:13.226Z,39.79
2019-04-07T11:10:12.606Z,40.09
2019-04-07T11:11:13.280Z,40.61
2019-04-07T11:12:12.494Z,41.83
2019-04-07T11:13:13.732Z,43.42
2019-04-07T11:14:13.345Z,41.53
2019-04-07T11:15:12.562Z,41.11
2019-04-07T11:16:12.778Z,41.77
2019-04-07T11:17:12.580Z,41.85
2019-04-07T11:18:12.426Z,39.81
2019-04-07T11:19:12.977Z,38.59
2019-04-07T11:20:13.233Z,39.69
2019-04-07T11:21:13.069Z,40.00
2019-04-07T11:22:12.384Z,39.06
2019-04-07T11:23:13.063Z,39.04
2019-04-07T11:24:12.364Z,37.88
2019-04-07T11:25:13.001Z,38.89
2019-04-07T11:26:12.445Z,38.48
2019-04-07T11:27:13.109Z,37.84
2019-04-07T11:28:12.320Z,38.38
2019-04-07T11:29:12.377Z,39.67
2019-04-07T11:30:12.292Z,39.65
2019-04-07T11:31:12.281Z,38.56
2019-04-07T11:32:12.277Z,38.44
2019-04-07T11:33:12.260Z,37.94
2019-04-07T11:34:12.932Z,36.71
2019-04-07T11:35:12.307Z,37.10
2019-04-07T11:36:12.226Z,37.38
2019-04-07T11:37:12.970Z,37.60
2019-04-07T11:38:12.206Z,37.98
2019-04-07T11:39:12.199Z,35.69
2019-04-07T11:40:12.814Z,36.96
2019-04-07T11:41:12.440Z,37.66
2019-04-07T11:42:13.031Z,36.72
2019-04-07T11:43:12.152Z,37.23
2019-04-07T11:44:12.810Z,36.21
2019-04-07T11:45:12.129Z,37.21
2019-04-07T11:46:12.120Z,37.21
2019-04-07T11:47:12.176Z,36.93
2019-04-07T11:48:12.198Z,36.19
2019-04-07T11:49:13.440Z,35.51
2019-04-07T11:50:12.501Z,34.80
2019-04-07T11:51:12.933Z,36.32
2019-04-07T11:52:12.537Z,36.52
2019-04-07T11:53:12.130Z,36.89
2019-04-07T11:54:12.051Z,36.85
2019-04-07T11:55:12.081Z,35.54
2019-04-07T11:56:12.025Z,36.27
2019-04-07T11:57:12.000Z,36.80
2019-04-07T11:58:15.946Z,36.49
2019-04-07T11:59:13.439Z,36.91
2019-04-07T12:00:12.442Z,36.16
2019-04-07T12:01:14.399Z,36.24
2019-04-07T12:02:12.565Z,36.54
2019-04-07T12:03:12.010Z,36.41
2019-04-07T12:04:14.345Z,37.06
2019-04-07T12:05:12.027Z,36.76
2019-04-07T12:06:14.260Z,37.96
2019-04-07T12:07:12.724Z,36.22
2019-04-07T12:08:11.904Z,36.11
2019-04-07T12:09:12.028Z,37.72
2019-04-07T12:10:12.563Z,36.39
2019-04-07T12:11:13.615Z,36.93
2019-04-07T12:12:12.646Z,36.13
2019-04-07T12:13:12.290Z,37.96
2019-04-07T12:14:15.060Z,37.46
2019-04-07T12:15:12.041Z,37.86
2019-04-07T12:16:11.795Z,37.82
2019-04-07T12:17:13.485Z,37.66
2019-04-07T12:18:16.228Z,37.74
2019-04-07T12:19:12.758Z,37.82
2019-04-07T12:20:11.751Z,36.41
2019-04-07T12:21:20.086Z,36.47
2019-04-07T12:22:14.193Z,37.51
2019-04-07T12:23:16.278Z,37.88
2019-04-07T12:24:13.584Z,38.36
2019-04-07T12:25:12.479Z,37.52
2019-04-07T12:26:11.711Z,37.90
2019-04-07T12:27:12.649Z,38.00
2019-04-07T12:28:14.636Z,38.85
2019-04-07T12:29:12.659Z,41.13
2019-04-07T12:30:11.643Z,39.78
2019-04-07T12:31:11.926Z,37.82
2019-04-07T12:32:11.702Z,38.14
2019-04-07T12:33:12.222Z,39.87
2019-04-07T12:34:14.121Z,41.47
2019-04-07T12:35:11.888Z,40.97
2019-04-07T12:36:11.819Z,37.74
2019-04-07T12:37:11.564Z,37.17
2019-04-07T12:38:12.520Z,36.24
2019-04-07T12:39:15.666Z,36.77
2019-04-07T12:40:11.601Z,37.59
2019-04-07T12:41:19.116Z,37.21
2019-04-07T12:42:13.247Z,38.68
2019-04-07T12:43:13.994Z,41.15
2019-04-07T12:44:11.571Z,39.59
2019-04-07T12:45:12.313Z,38.62
2019-04-07T12:46:11.554Z,38.56
2019-04-07T12:47:12.167Z,37.60
2019-04-07T12:48:11.447Z,37.38
2019-04-07T12:49:12.179Z,36.76
2019-04-07T12:50:15.474Z,36.54
2019-04-07T12:51:12.487Z,36.85
2019-04-07T12:52:11.737Z,37.68